sensor_id;sensor_type;location;lat;lon;timestamp;P1;durP1;ratioP1;P2;durP2;ratioP2
9884;SDS011;4981;50.966;4.842;2023-08-21T00:00:58;9.48;;;2.08;;
9884;SDS011;4981;50.966;4.842;2023-08-21T00:03:25;6.03;;;2.05;;
9884;SDS011;4981;50.966;4.842;2023-08-21T00:05:52;9.38;;;2.15;;
9884;SDS011;4981;50.966;4.842;2023-08-21T00:08:19;9.52;;;2.00;;
9884;SDS011;4981;50.966;4.842;2023-08-21T00:10:46;6.72;;;2.55;;
9884;SDS011;4981;50.966;4.842;2023-08-21T00:13:14;9.10;;;2.58;;
9884;SDS011;4981;50.966;4.842;2023-08-21T00:15:41;6.95;;;1.77;;
9884;SDS011;4981;50.966;4.842;2023-08-21T00:18:08;5.90;;;2.25;;
9884;SDS011;4981;50.966;4.842;2023-08-21T00:20:35;8.38;;;2.00;;
9884;SDS011;4981;50.966;4.842;2023-08-21T00:23:02;6.50;;;2.00;;
9884;SDS011;4981;50.966;4.842;2023-08-21T00:25:29;10.20;;;1.98;;
9884;SDS011;4981;50.966;4.842;2023-08-21T00:27:56;10.80;;;2.65;;
9884;SDS011;4981;50.966;4.842;2023-08-21T00:30:24;9.90;;;2.25;;
9884;SDS011;4981;50.966;4.842;2023-08-21T00:32:51;7.03;;;2.10;;
9884;SDS011;4981;50.966;4.842;2023-08-21T00:35:18;11.18;;;2.08;;
9884;SDS011;4981;50.966;4.842;2023-08-21T00:37:45;7.60;;;2.00;;
9884;SDS011;4981;50.966;4.842;2023-08-21T00:40:13;5.05;;;1.60;;
9884;SDS011;4981;50.966;4.842;2023-08-21T00:42:40;6.30;;;1.85;;
9884;SDS011;4981;50.966;4.842;2023-08-21T00:45:07;7.22;;;2.17;;
9884;SDS011;4981;50.966;4.842;2023-08-21T00:47:35;7.80;;;1.92;;
9884;SDS011;4981;50.966;4.842;2023-08-21T00:50:03;7.05;;;2.13;;
9884;SDS011;4981;50.966;4.842;2023-08-21T00:52:34;8.93;;;1.95;;
9884;SDS011;4981;50.966;4.842;2023-08-21T00:55:02;6.25;;;1.98;;
9884;SDS011;4981;50.966;4.842;2023-08-21T00:57:30;4.55;;;2.08;;
9884;SDS011;4981;50.966;4.842;2023-08-21T00:59:59;6.78;;;2.13;;
9884;SDS011;4981;50.966;4.842;2023-08-21T01:02:27;6.70;;;1.83;;
9884;SDS011;4981;50.966;4.842;2023-08-21T01:04:55;7.45;;;2.13;;
9884;SDS011;4981;50.966;4.842;2023-08-21T01:07:22;9.05;;;2.10;;
9884;SDS011;4981;50.966;4.842;2023-08-21T01:09:50;8.23;;;2.47;;
9884;SDS011;4981;50.966;4.842;2023-08-21T01:12:23;10.05;;;2.28;;
9884;SDS011;4981;50.966;4.842;2023-08-21T01:14:58;4.95;;;1.90;;
9884;SDS011;4981;50.966;4.842;2023-08-21T01:17:26;6.15;;;1.80;;
9884;SDS011;4981;50.966;4.842;2023-08-21T01:19:57;5.80;;;1.83;;
9884;SDS011;4981;50.966;4.842;2023-08-21T01:22:26;6.38;;;2.15;;
9884;SDS011;4981;50.966;4.842;2023-08-21T01:24:55;6.90;;;2.03;;
9884;SDS011;4981;50.966;4.842;2023-08-21T01:27:22;6.32;;;2.17;;
9884;SDS011;4981;50.966;4.842;2023-08-21T01:29:49;9.55;;;2.17;;
9884;SDS011;4981;50.966;4.842;2023-08-21T01:32:18;8.93;;;2.25;;
9884;SDS011;4981;50.966;4.842;2023-08-21T01:34:53;5.85;;;2.17;;
9884;SDS011;4981;50.966;4.842;2023-08-21T01:37:23;7.30;;;2.08;;
9884;SDS011;4981;50.966;4.842;2023-08-21T01:39:52;6.47;;;1.63;;
9884;SDS011;4981;50.966;4.842;2023-08-21T01:42:20;6.22;;;1.85;;
9884;SDS011;4981;50.966;4.842;2023-08-21T01:44:47;6.20;;;1.63;;
9884;SDS011;4981;50.966;4.842;2023-08-21T01:47:14;5.50;;;1.95;;
9884;SDS011;4981;50.966;4.842;2023-08-21T01:49:41;6.60;;;2.03;;
9884;SDS011;4981;50.966;4.842;2023-08-21T01:52:08;4.90;;;1.58;;
9884;SDS011;4981;50.966;4.842;2023-08-21T01:54:35;9.95;;;2.30;;
9884;SDS011;4981;50.966;4.842;2023-08-21T01:57:02;6.30;;;2.15;;
9884;SDS011;4981;50.966;4.842;2023-08-21T01:59:31;6.13;;;2.10;;
9884;SDS011;4981;50.966;4.842;2023-08-21T02:01:58;6.45;;;1.77;;
9884;SDS011;4981;50.966;4.842;2023-08-21T02:04:25;5.38;;;2.05;;
9884;SDS011;4981;50.966;4.842;2023-08-21T02:06:52;5.13;;;1.92;;
9884;SDS011;4981;50.966;4.842;2023-08-21T02:09:19;5.70;;;1.98;;
9884;SDS011;4981;50.966;4.842;2023-08-21T02:11:46;9.63;;;2.17;;
9884;SDS011;4981;50.966;4.842;2023-08-21T02:14:13;8.32;;;2.42;;
9884;SDS011;4981;50.966;4.842;2023-08-21T02:16:41;7.93;;;2.65;;
9884;SDS011;4981;50.966;4.842;2023-08-21T02:19:08;7.80;;;1.75;;
9884;SDS011;4981;50.966;4.842;2023-08-21T02:21:35;6.28;;;2.22;;
9884;SDS011;4981;50.966;4.842;2023-08-21T02:24:02;6.18;;;1.90;;
9884;SDS011;4981;50.966;4.842;2023-08-21T02:26:30;6.00;;;1.90;;
9884;SDS011;4981;50.966;4.842;2023-08-21T02:28:57;7.68;;;2.28;;
9884;SDS011;4981;50.966;4.842;2023-08-21T02:31:24;9.10;;;2.47;;
9884;SDS011;4981;50.966;4.842;2023-08-21T02:33:52;9.85;;;2.45;;
9884;SDS011;4981;50.966;4.842;2023-08-21T02:36:19;7.72;;;2.30;;
9884;SDS011;4981;50.966;4.842;2023-08-21T02:38:46;5.95;;;2.05;;
9884;SDS011;4981;50.966;4.842;2023-08-21T02:41:13;6.32;;;2.40;;
9884;SDS011;4981;50.966;4.842;2023-08-21T02:43:40;6.07;;;1.90;;
9884;SDS011;4981;50.966;4.842;2023-08-21T02:46:07;9.30;;;2.10;;
9884;SDS011;4981;50.966;4.842;2023-08-21T02:48:34;7.43;;;2.40;;
9884;SDS011;4981;50.966;4.842;2023-08-21T02:51:02;10.00;;;2.45;;
9884;SDS011;4981;50.966;4.842;2023-08-21T02:53:29;8.75;;;2.08;;
9884;SDS011;4981;50.966;4.842;2023-08-21T02:55:56;6.22;;;2.20;;
9884;SDS011;4981;50.966;4.842;2023-08-21T02:58:23;5.32;;;2.10;;
9884;SDS011;4981;50.966;4.842;2023-08-21T03:00:50;10.18;;;2.38;;
9884;SDS011;4981;50.966;4.842;2023-08-21T03:03:17;6.20;;;2.10;;
9884;SDS011;4981;50.966;4.842;2023-08-21T03:05:44;7.95;;;2.30;;
9884;SDS011;4981;50.966;4.842;2023-08-21T03:08:12;5.82;;;2.00;;
9884;SDS011;4981;50.966;4.842;2023-08-21T03:10:39;6.95;;;2.03;;
9884;SDS011;4981;50.966;4.842;2023-08-21T03:13:06;5.57;;;2.27;;
9884;SDS011;4981;50.966;4.842;2023-08-21T03:15:34;5.60;;;2.20;;
9884;SDS011;4981;50.966;4.842;2023-08-21T03:18:01;8.10;;;2.25;;
9884;SDS011;4981;50.966;4.842;2023-08-21T03:20:28;7.60;;;2.37;;
9884;SDS011;4981;50.966;4.842;2023-08-21T03:22:55;8.03;;;2.20;;
9884;SDS011;4981;50.966;4.842;2023-08-21T03:25:24;5.82;;;2.22;;
9884;SDS011;4981;50.966;4.842;2023-08-21T03:27:51;7.85;;;2.08;;
9884;SDS011;4981;50.966;4.842;2023-08-21T03:30:18;9.75;;;2.35;;
9884;SDS011;4981;50.966;4.842;2023-08-21T03:32:45;8.07;;;2.27;;
9884;SDS011;4981;50.966;4.842;2023-08-21T03:35:12;5.63;;;1.97;;
9884;SDS011;4981;50.966;4.842;2023-08-21T03:37:39;7.88;;;2.20;;
9884;SDS011;4981;50.966;4.842;2023-08-21T03:40:06;8.25;;;2.50;;
9884;SDS011;4981;50.966;4.842;2023-08-21T03:42:35;6.45;;;2.20;;
9884;SDS011;4981;50.966;4.842;2023-08-21T03:45:02;5.17;;;2.20;;
9884;SDS011;4981;50.966;4.842;2023-08-21T03:47:31;10.43;;;2.45;;
9884;SDS011;4981;50.966;4.842;2023-08-21T03:49:58;10.48;;;2.60;;
9884;SDS011;4981;50.966;4.842;2023-08-21T03:52:25;6.00;;;2.20;;
9884;SDS011;4981;50.966;4.842;2023-08-21T03:54:52;4.72;;;2.22;;
9884;SDS011;4981;50.966;4.842;2023-08-21T03:57:19;7.27;;;2.03;;
9884;SDS011;4981;50.966;4.842;2023-08-21T03:59:47;5.65;;;2.20;;
9884;SDS011;4981;50.966;4.842;2023-08-21T04:02:14;6.78;;;2.58;;
9884;SDS011;4981;50.966;4.842;2023-08-21T04:04:41;5.22;;;2.45;;
9884;SDS011;4981;50.966;4.842;2023-08-21T04:07:08;6.00;;;2.20;;
9884;SDS011;4981;50.966;4.842;2023-08-21T04:09:35;6.75;;;2.55;;
9884;SDS011;4981;50.966;4.842;2023-08-21T04:12:02;5.10;;;2.13;;
9884;SDS011;4981;50.966;4.842;2023-08-21T04:14:30;8.18;;;2.33;;
9884;SDS011;4981;50.966;4.842;2023-08-21T04:16:58;8.15;;;2.67;;
9884;SDS011;4981;50.966;4.842;2023-08-21T04:19:25;4.88;;;2.17;;
9884;SDS011;4981;50.966;4.842;2023-08-21T04:21:55;6.43;;;1.97;;
9884;SDS011;4981;50.966;4.842;2023-08-21T04:24:22;8.68;;;2.60;;
9884;SDS011;4981;50.966;4.842;2023-08-21T04:26:49;5.97;;;2.25;;
9884;SDS011;4981;50.966;4.842;2023-08-21T04:29:16;8.18;;;2.20;;
9884;SDS011;4981;50.966;4.842;2023-08-21T04:31:42;7.90;;;2.53;;
9884;SDS011;4981;50.966;4.842;2023-08-21T04:34:11;6.07;;;2.55;;
9884;SDS011;4981;50.966;4.842;2023-08-21T04:36:38;5.87;;;2.33;;
9884;SDS011;4981;50.966;4.842;2023-08-21T04:39:05;7.75;;;2.38;;
9884;SDS011;4981;50.966;4.842;2023-08-21T04:41:32;10.25;;;3.03;;
9884;SDS011;4981;50.966;4.842;2023-08-21T04:43:59;8.00;;;2.65;;
9884;SDS011;4981;50.966;4.842;2023-08-21T04:46:26;7.47;;;2.70;;
9884;SDS011;4981;50.966;4.842;2023-08-21T04:48:53;5.72;;;2.55;;
9884;SDS011;4981;50.966;4.842;2023-08-21T04:51:22;9.10;;;2.87;;
9884;SDS011;4981;50.966;4.842;2023-08-21T04:53:48;6.40;;;2.35;;
9884;SDS011;4981;50.966;4.842;2023-08-21T04:56:15;7.50;;;2.70;;
9884;SDS011;4981;50.966;4.842;2023-08-21T04:58:42;8.73;;;2.43;;
9884;SDS011;4981;50.966;4.842;2023-08-21T05:01:09;5.77;;;2.30;;
9884;SDS011;4981;50.966;4.842;2023-08-21T05:03:39;6.53;;;2.67;;
9884;SDS011;4981;50.966;4.842;2023-08-21T05:06:07;6.78;;;2.33;;
9884;SDS011;4981;50.966;4.842;2023-08-21T05:08:35;8.30;;;2.40;;
9884;SDS011;4981;50.966;4.842;2023-08-21T05:11:02;5.93;;;2.17;;
9884;SDS011;4981;50.966;4.842;2023-08-21T05:13:29;7.32;;;2.83;;
9884;SDS011;4981;50.966;4.842;2023-08-21T05:15:56;9.57;;;2.38;;
9884;SDS011;4981;50.966;4.842;2023-08-21T05:18:24;10.13;;;2.75;;
9884;SDS011;4981;50.966;4.842;2023-08-21T05:20:54;7.03;;;2.60;;
9884;SDS011;4981;50.966;4.842;2023-08-21T05:23:21;6.43;;;2.47;;
9884;SDS011;4981;50.966;4.842;2023-08-21T05:25:50;8.93;;;2.90;;
9884;SDS011;4981;50.966;4.842;2023-08-21T05:28:17;7.80;;;2.88;;
9884;SDS011;4981;50.966;4.842;2023-08-21T05:30:46;6.68;;;2.67;;
9884;SDS011;4981;50.966;4.842;2023-08-21T05:33:14;12.07;;;2.85;;
9884;SDS011;4981;50.966;4.842;2023-08-21T05:35:41;11.73;;;3.20;;
9884;SDS011;4981;50.966;4.842;2023-08-21T05:38:08;6.70;;;2.70;;
9884;SDS011;4981;50.966;4.842;2023-08-21T05:40:35;6.68;;;2.40;;
9884;SDS011;4981;50.966;4.842;2023-08-21T05:43:03;10.05;;;2.47;;
9884;SDS011;4981;50.966;4.842;2023-08-21T05:45:30;6.80;;;2.35;;
9884;SDS011;4981;50.966;4.842;2023-08-21T05:47:57;5.03;;;2.13;;
9884;SDS011;4981;50.966;4.842;2023-08-21T05:50:24;6.73;;;2.53;;
9884;SDS011;4981;50.966;4.842;2023-08-21T05:52:51;6.90;;;2.55;;
9884;SDS011;4981;50.966;4.842;2023-08-21T05:55:19;10.70;;;3.03;;
9884;SDS011;4981;50.966;4.842;2023-08-21T05:57:46;9.60;;;3.30;;
9884;SDS011;4981;50.966;4.842;2023-08-21T06:00:15;8.30;;;2.90;;
9884;SDS011;4981;50.966;4.842;2023-08-21T06:02:42;11.77;;;3.10;;
9884;SDS011;4981;50.966;4.842;2023-08-21T06:05:10;9.25;;;2.88;;
9884;SDS011;4981;50.966;4.842;2023-08-21T06:07:37;9.85;;;3.28;;
9884;SDS011;4981;50.966;4.842;2023-08-21T06:10:05;7.93;;;3.17;;
9884;SDS011;4981;50.966;4.842;2023-08-21T06:12:33;8.40;;;3.30;;
9884;SDS011;4981;50.966;4.842;2023-08-21T06:15:00;6.07;;;2.53;;
9884;SDS011;4981;50.966;4.842;2023-08-21T06:17:29;8.95;;;3.25;;
9884;SDS011;4981;50.966;4.842;2023-08-21T06:19:55;8.40;;;2.75;;
9884;SDS011;4981;50.966;4.842;2023-08-21T06:22:22;8.82;;;2.80;;
9884;SDS011;4981;50.966;4.842;2023-08-21T06:24:51;7.50;;;2.80;;
9884;SDS011;4981;50.966;4.842;2023-08-21T06:27:18;12.07;;;3.60;;
9884;SDS011;4981;50.966;4.842;2023-08-21T06:29:44;7.40;;;3.30;;
9884;SDS011;4981;50.966;4.842;2023-08-21T06:32:11;7.55;;;3.28;;
9884;SDS011;4981;50.966;4.842;2023-08-21T06:34:40;10.70;;;3.03;;
9884;SDS011;4981;50.966;4.842;2023-08-21T06:37:07;9.50;;;3.35;;
9884;SDS011;4981;50.966;4.842;2023-08-21T06:39:34;7.68;;;2.47;;
9884;SDS011;4981;50.966;4.842;2023-08-21T06:42:01;11.57;;;3.15;;
9884;SDS011;4981;50.966;4.842;2023-08-21T06:44:28;9.20;;;2.97;;
9884;SDS011;4981;50.966;4.842;2023-08-21T06:46:55;7.33;;;2.50;;
9884;SDS011;4981;50.966;4.842;2023-08-21T06:49:23;10.30;;;2.63;;
9884;SDS011;4981;50.966;4.842;2023-08-21T06:51:51;8.55;;;2.88;;
9884;SDS011;4981;50.966;4.842;2023-08-21T06:54:18;10.20;;;2.97;;
9884;SDS011;4981;50.966;4.842;2023-08-21T06:56:45;9.13;;;2.72;;
9884;SDS011;4981;50.966;4.842;2023-08-21T06:59:12;11.00;;;2.58;;
9884;SDS011;4981;50.966;4.842;2023-08-21T07:01:40;9.30;;;3.00;;
9884;SDS011;4981;50.966;4.842;2023-08-21T07:04:07;9.38;;;3.20;;
9884;SDS011;4981;50.966;4.842;2023-08-21T07:06:34;9.55;;;2.90;;
9884;SDS011;4981;50.966;4.842;2023-08-21T07:09:02;10.57;;;2.70;;
9884;SDS011;4981;50.966;4.842;2023-08-21T07:11:29;8.40;;;2.33;;
9884;SDS011;4981;50.966;4.842;2023-08-21T07:13:56;12.02;;;3.13;;
9884;SDS011;4981;50.966;4.842;2023-08-21T07:16:24;7.25;;;2.38;;
9884;SDS011;4981;50.966;4.842;2023-08-21T07:18:51;7.75;;;2.72;;
9884;SDS011;4981;50.966;4.842;2023-08-21T07:21:18;8.25;;;2.35;;
9884;SDS011;4981;50.966;4.842;2023-08-21T13:04:12;5.85;;;1.45;;
9884;SDS011;4981;50.966;4.842;2023-08-21T13:06:39;3.00;;;1.20;;
9884;SDS011;4981;50.966;4.842;2023-08-21T13:09:06;5.38;;;1.50;;
9884;SDS011;4981;50.966;4.842;2023-08-21T13:11:33;5.38;;;1.10;;
9884;SDS011;4981;50.966;4.842;2023-08-21T13:14:00;5.78;;;1.27;;
9884;SDS011;4981;50.966;4.842;2023-08-21T13:16:27;4.30;;;1.27;;
9884;SDS011;4981;50.966;4.842;2023-08-21T13:18:56;3.85;;;1.30;;
9884;SDS011;4981;50.966;4.842;2023-08-21T13:21:23;3.75;;;1.20;;
9884;SDS011;4981;50.966;4.842;2023-08-21T13:23:50;3.40;;;1.30;;
9884;SDS011;4981;50.966;4.842;2023-08-21T13:26:17;5.53;;;1.20;;
9884;SDS011;4981;50.966;4.842;2023-08-21T13:28:44;4.47;;;1.40;;
9884;SDS011;4981;50.966;4.842;2023-08-21T13:31:11;7.38;;;1.35;;
9884;SDS011;4981;50.966;4.842;2023-08-21T13:33:44;4.28;;;1.27;;
9884;SDS011;4981;50.966;4.842;2023-08-21T13:36:13;5.53;;;1.30;;
9884;SDS011;4981;50.966;4.842;2023-08-21T13:38:41;4.25;;;1.15;;
9884;SDS011;4981;50.966;4.842;2023-08-21T13:41:08;4.07;;;1.02;;
9884;SDS011;4981;50.966;4.842;2023-08-21T13:43:36;2.97;;;1.10;;
9884;SDS011;4981;50.966;4.842;2023-08-21T13:46:04;4.22;;;1.00;;
9884;SDS011;4981;50.966;4.842;2023-08-21T13:48:31;6.13;;;1.27;;
9884;SDS011;4981;50.966;4.842;2023-08-21T13:50:58;5.45;;;1.40;;
9884;SDS011;4981;50.966;4.842;2023-08-21T13:53:27;2.97;;;1.10;;
9884;SDS011;4981;50.966;4.842;2023-08-21T13:55:54;5.10;;;1.42;;
9884;SDS011;4981;50.966;4.842;2023-08-21T13:58:21;6.65;;;1.45;;
9884;SDS011;4981;50.966;4.842;2023-08-21T14:00:48;4.07;;;1.27;;
